createdAt,value
2022-10-08T00:01:21.412Z,101811.13
2022-10-08T00:03:53.489Z,101812.91
2022-10-08T00:06:26.846Z,101811.16
2022-10-08T00:08:55.342Z,101807.59
2022-10-08T00:11:25.411Z,101812.84
2022-10-08T00:13:54.339Z,101819.00
2022-10-08T00:16:24.943Z,101819.00
2022-10-08T00:18:54.837Z,101814.59
2022-10-08T00:21:23.804Z,101804.06
2022-10-08T00:23:53.253Z,101812.84
2022-10-08T00:26:24.491Z,101816.38
2022-10-08T00:28:54.181Z,101816.38
2022-10-08T00:31:28.081Z,101820.78
2022-10-08T00:33:57.677Z,101823.41
2022-10-08T00:36:27.185Z,101817.31
2022-10-08T00:39:07.234Z,101818.16
2022-10-08T00:41:37.461Z,101807.63
2022-10-08T00:44:43.030Z,101799.66
2022-10-08T00:47:31.487Z,101799.66
2022-10-08T00:50:22.593Z,101796.16
2022-10-08T00:53:01.477Z,101804.06
2022-10-08T00:55:30.063Z,101801.41
2022-10-08T00:58:01.358Z,101806.69
2022-10-08T01:00:29.470Z,101798.78
2022-10-08T01:02:56.854Z,101800.53
2022-10-08T01:05:49.287Z,101803.19
2022-10-08T01:08:35.196Z,101797.06
2022-10-08T01:11:55.013Z,101808.44
2022-10-08T01:14:57.035Z,101804.06
2022-10-08T01:17:37.953Z,101796.13
2022-10-08T01:20:51.353Z,101792.63
2022-10-08T01:24:09.285Z,101800.53
2022-10-08T01:26:51.363Z,101805.78
2022-10-08T01:29:37.632Z,101801.41
2022-10-08T01:32:09.111Z,101797.00
2022-10-08T01:34:49.659Z,101785.59
2022-10-08T01:37:41.450Z,101796.09
2022-10-08T01:40:15.308Z,101786.38
2022-10-08T01:43:00.106Z,101783.75
2022-10-08T01:45:33.664Z,101789.88
2022-10-08T01:48:04.616Z,101783.72
2022-10-08T01:50:38.034Z,101781.06
2022-10-08T01:53:07.978Z,101788.09
2022-10-08T01:55:37.790Z,101788.09
2022-10-08T01:58:09.812Z,101784.63
2022-10-08T02:00:41.558Z,101780.22
2022-10-08T02:03:14.005Z,101787.28
2022-10-08T02:05:48.930Z,101776.72
2022-10-08T02:08:16.572Z,101774.09
2022-10-08T02:10:45.438Z,101766.19
2022-10-08T02:13:14.521Z,101774.06
2022-10-08T02:16:05.728Z,101770.59
2022-10-08T02:18:42.211Z,101761.81
2022-10-08T02:21:28.405Z,101756.56
2022-10-08T02:23:58.462Z,101755.69
2022-10-08T02:26:35.227Z,101760.91
2022-10-08T02:29:25.244Z,101759.19
2022-10-08T02:32:01.731Z,101749.50
2022-10-08T02:35:07.530Z,101750.41
2022-10-08T02:37:42.730Z,101748.63
2022-10-08T02:40:13.750Z,101740.69
2022-10-08T02:42:47.107Z,101740.72
2022-10-08T02:45:16.968Z,101735.44
2022-10-08T02:47:47.997Z,101738.06
2022-10-08T02:50:21.098Z,101727.53
2022-10-08T02:52:51.350Z,101720.50
2022-10-08T02:55:48.865Z,101722.22
2022-10-08T02:58:17.020Z,101723.09
2022-10-08T03:00:57.682Z,101723.13
2022-10-08T03:03:38.545Z,101714.31
2022-10-08T03:06:10.023Z,101716.97
2022-10-08T03:08:43.508Z,101717.84
2022-10-08T03:11:11.399Z,101722.22
2022-10-08T03:13:42.743Z,101720.47
2022-10-08T03:16:16.360Z,101716.06
2022-10-08T03:18:44.885Z,101711.66
2022-10-08T03:21:14.593Z,101711.66
2022-10-08T03:23:42.505Z,101722.13
2022-10-08T03:26:09.805Z,101711.66
2022-10-08T03:28:37.658Z,101709.03
2022-10-08T03:31:08.454Z,101715.16
2022-10-08T03:33:36.117Z,101711.63
2022-10-08T03:36:04.371Z,101709.00
2022-10-08T03:38:34.167Z,101710.69
2022-10-08T03:41:01.928Z,101708.06
2022-10-08T03:43:35.988Z,101713.31
2022-10-08T03:46:04.299Z,101710.66
2022-10-08T03:48:31.997Z,101714.22
2022-10-08T03:51:05.007Z,101711.44
2022-10-08T03:53:43.489Z,101716.72
2022-10-08T03:56:17.583Z,101721.91
2022-10-08T03:58:46.380Z,101714.97
2022-10-08T04:01:17.624Z,101724.59
2022-10-08T04:03:48.313Z,101726.38
2022-10-08T04:06:19.510Z,101726.41
2022-10-08T04:08:46.751Z,101724.66
2022-10-08T04:11:18.356Z,101730.75
2022-10-08T04:13:46.029Z,101736.94
2022-10-08T04:16:15.765Z,101741.34
2022-10-08T04:18:44.079Z,101740.50
2022-10-08T04:21:14.204Z,101751.94
2022-10-08T04:23:45.302Z,101747.56
2022-10-08T04:26:14.434Z,101743.19
2022-10-08T04:28:45.167Z,101744.06
2022-10-08T04:31:20.005Z,101748.53
2022-10-08T04:33:50.820Z,101745.94
2022-10-08T04:36:20.627Z,101739.75
2022-10-08T04:38:50.803Z,101743.25
2022-10-08T04:41:23.926Z,101751.16
2022-10-08T04:43:55.848Z,101744.13
2022-10-08T04:46:23.266Z,101753.81
2022-10-08T04:48:53.538Z,101745.91
2022-10-08T04:51:26.576Z,101744.13
2022-10-08T04:53:55.821Z,101745.00
2022-10-08T04:56:27.580Z,101747.66
2022-10-08T04:58:55.428Z,101744.94
2022-10-08T05:01:23.529Z,101743.25
2022-10-08T05:03:53.892Z,101738.88
2022-10-08T05:06:30.158Z,101749.41
2022-10-08T05:08:59.279Z,101745.91
2022-10-08T05:11:27.816Z,101745.06
2022-10-08T05:13:58.768Z,101747.69
2022-10-08T05:16:26.731Z,101745.94
2022-10-08T05:18:56.303Z,101751.19
2022-10-08T05:21:27.063Z,101750.31
2022-10-08T05:24:00.104Z,101748.56
2022-10-08T05:29:23.991Z,101755.59
2022-10-08T05:31:56.904Z,101759.06
2022-10-08T05:34:28.515Z,101758.22
2022-10-08T05:37:01.100Z,101761.75
2022-10-08T05:39:28.367Z,101764.41
2022-10-08T05:42:05.989Z,101767.94
2022-10-08T05:44:39.858Z,101767.06
2022-10-08T05:47:20.128Z,101759.13
2022-10-08T05:49:54.087Z,101763.56
2022-10-08T05:52:38.764Z,101762.66
2022-10-08T05:55:23.138Z,101766.19
2022-10-08T05:57:58.547Z,101765.34
2022-10-08T06:00:32.962Z,101760.94
2022-10-08T06:03:05.680Z,101772.38
2022-10-08T06:05:47.095Z,101763.59
2022-10-08T06:08:21.244Z,101769.72
2022-10-08T06:10:55.707Z,101775.88
2022-10-08T06:13:37.531Z,101777.66
2022-10-08T06:16:15.479Z,101774.13
2022-10-08T06:19:05.769Z,101776.75
2022-10-08T06:21:48.327Z,101781.19
2022-10-08T06:24:32.266Z,101782.06
2022-10-08T06:27:10.043Z,101782.91
2022-10-08T06:29:48.739Z,101781.13
2022-10-08T06:32:24.898Z,101776.72
2022-10-08T06:35:01.617Z,101785.50
2022-10-08T06:37:40.840Z,101786.38
2022-10-08T06:40:20.803Z,101791.66
2022-10-08T06:43:17.267Z,101794.28
2022-10-08T06:45:56.568Z,101797.81
2022-10-08T06:48:36.428Z,101801.31
2022-10-08T06:51:16.573Z,101805.72
2022-10-08T06:54:07.994Z,101805.72
2022-10-08T06:56:38.078Z,101804.84
2022-10-08T06:59:06.630Z,101810.13
2022-10-08T07:04:44.063Z,101818.94
2022-10-08T07:07:37.507Z,101822.44
2022-10-08T07:10:37.918Z,101828.63
2022-10-08T07:13:07.151Z,101827.72
2022-10-08T07:15:50.225Z,101828.59
2022-10-08T07:18:26.845Z,101825.91
2022-10-08T07:20:59.552Z,101826.84
2022-10-08T07:23:29.530Z,101833.03
2022-10-08T07:26:01.958Z,101835.66
2022-10-08T07:28:31.282Z,101834.81
2022-10-08T07:31:03.565Z,101836.50
2022-10-08T07:33:30.716Z,101838.25
2022-10-08T07:36:11.294Z,101839.13
2022-10-08T07:38:46.854Z,101843.56
2022-10-08T07:41:17.832Z,101850.59
2022-10-08T07:43:46.048Z,101851.47
2022-10-08T07:46:14.682Z,101853.25
2022-10-08T07:48:44.491Z,101858.50
2022-10-08T07:51:27.859Z,101865.50
2022-10-08T07:54:03.005Z,101862.91
2022-10-08T07:56:39.122Z,101866.41
2022-10-08T07:59:07.140Z,101873.44
2022-10-08T08:01:34.836Z,101867.34
2022-10-08T08:04:10.851Z,101871.69
2022-10-08T08:06:44.171Z,101878.78
2022-10-08T08:09:12.303Z,101879.69
2022-10-08T08:11:40.367Z,101886.72
2022-10-08T08:14:08.367Z,101884.94
2022-10-08T08:16:37.562Z,101885.91
2022-10-08T08:19:06.488Z,101886.78
2022-10-08T08:21:38.397Z,101892.97
2022-10-08T08:24:25.900Z,101885.00
2022-10-08T08:26:57.826Z,101885.91
2022-10-08T08:29:31.189Z,101882.44
2022-10-08T08:32:07.403Z,101884.19
2022-10-08T08:34:38.996Z,101880.66
2022-10-08T08:37:19.998Z,101878.03
2022-10-08T08:39:54.954Z,101879.81
2022-10-08T08:42:51.893Z,101878.06
2022-10-08T08:45:46.865Z,101890.38
2022-10-08T08:48:27.604Z,101887.72
2022-10-08T08:51:08.397Z,101881.56
2022-10-08T08:53:39.386Z,101886.84
2022-10-08T08:56:19.008Z,101881.53
2022-10-08T08:59:30.492Z,101885.88
2022-10-08T09:02:01.930Z,101891.19
2022-10-08T09:05:49.671Z,101886.72
2022-10-08T09:08:37.656Z,101888.56
2022-10-08T09:11:19.779Z,101885.88
2022-10-08T09:14:15.025Z,101891.16
2022-10-08T09:17:26.904Z,101894.66
2022-10-08T09:20:27.475Z,101892.84
2022-10-08T09:23:17.991Z,101898.72
2022-10-08T09:26:18.968Z,101893.91
2022-10-08T09:29:06.469Z,101886.63
2022-10-08T09:32:34.822Z,101887.38
2022-10-08T09:35:53.098Z,101883.19
2022-10-08T09:38:52.426Z,101880.56
2022-10-08T09:41:43.677Z,101889.94
2022-10-08T09:44:17.801Z,101892.69
2022-10-08T09:47:16.497Z,101893.34
2022-10-08T09:50:41.723Z,101892.56
2022-10-08T09:53:24.614Z,101899.53
2022-10-08T09:56:14.049Z,101888.91
2022-10-08T09:58:55.345Z,101885.88
2022-10-08T10:01:27.536Z,101888.50
2022-10-08T10:04:11.810Z,101891.19
2022-10-08T10:06:55.069Z,101892.22
2022-10-08T10:09:50.524Z,101897.56
2022-10-08T10:12:24.861Z,101887.84
2022-10-08T10:15:06.527Z,101883.06
2022-10-08T10:18:01.595Z,101885.44
2022-10-08T10:20:54.361Z,101885.03
2022-10-08T10:24:03.197Z,101883.00
2022-10-08T10:26:53.536Z,101877.81
2022-10-08T10:29:39.034Z,101885.91
2022-10-08T10:32:31.007Z,101887.06
2022-10-08T10:35:33.204Z,101877.13
2022-10-08T10:38:21.871Z,101878.00
2022-10-08T10:41:25.249Z,101869.44
2022-10-08T10:44:04.230Z,101871.44
2022-10-08T10:46:44.602Z,101869.81
2022-10-08T10:49:23.374Z,101876.50
2022-10-08T10:52:34.455Z,101877.19
2022-10-08T10:56:06.987Z,101874.94
2022-10-08T10:59:08.178Z,101867.31
2022-10-08T11:01:53.528Z,101873.31
2022-10-08T11:08:24.705Z,101860.81
2022-10-08T11:11:37.432Z,101856.09
2022-10-08T11:14:34.587Z,101851.59
2022-10-08T11:17:51.111Z,101844.81
2022-10-08T11:21:11.185Z,101846.56
2022-10-08T11:24:19.367Z,101847.94
2022-10-08T11:27:42.635Z,101846.47
2022-10-08T11:30:45.175Z,101852.13
2022-10-08T11:33:19.105Z,101848.97
2022-10-08T11:36:16.347Z,101849.94
2022-10-08T11:42:48.377Z,101851.91
2022-10-08T11:45:40.444Z,101850.53
2022-10-08T11:51:55.138Z,101843.63
2022-10-08T11:54:35.576Z,101841.97
2022-10-08T12:01:01.780Z,101846.69
2022-10-08T12:04:13.811Z,101833.50
2022-10-08T12:06:41.086Z,101843.72
2022-10-08T12:09:25.117Z,101829.94
2022-10-08T12:11:55.831Z,101822.25
2022-10-08T12:14:24.594Z,101825.94
2022-10-08T12:17:02.607Z,101817.16
2022-10-08T12:19:33.295Z,101816.22
2022-10-08T12:22:19.400Z,101810.91
2022-10-08T12:25:04.130Z,101821.13
2022-10-08T12:27:40.532Z,101815.00
2022-10-08T12:31:09.773Z,101807.66
2022-10-08T12:33:43.951Z,101814.38
2022-10-08T12:36:32.645Z,101809.34
2022-10-08T12:39:43.008Z,101810.22
2022-10-08T12:42:19.869Z,101816.00
2022-10-08T12:45:12.411Z,101802.53
2022-10-08T12:48:06.083Z,101796.97
2022-10-08T12:50:36.594Z,101794.75
2022-10-08T12:53:19.308Z,101789.63
2022-10-08T12:55:54.252Z,101793.78
2022-10-08T12:58:42.186Z,101796.91
2022-10-08T13:01:38.709Z,101790.09
2022-10-08T13:04:38.443Z,101779.44
2022-10-08T13:07:38.727Z,101775.50
2022-10-08T13:13:45.475Z,101768.16
2022-10-08T13:16:17.260Z,101768.00
2022-10-08T13:18:53.483Z,101768.31
2022-10-08T13:22:02.116Z,101765.09
2022-10-08T13:24:32.505Z,101763.13
2022-10-08T13:27:02.171Z,101764.94
2022-10-08T13:29:48.230Z,101762.81
2022-10-08T13:32:43.037Z,101764.31
2022-10-08T13:35:30.749Z,101755.41
2022-10-08T13:38:14.942Z,101757.72
2022-10-08T13:40:51.234Z,101759.28
2022-10-08T13:43:27.203Z,101747.16
2022-10-08T13:46:10.617Z,101741.16
2022-10-08T13:48:44.934Z,101747.34
2022-10-08T13:51:15.339Z,101745.75
2022-10-08T13:53:53.604Z,101735.34
2022-10-08T13:56:28.822Z,101747.34
2022-10-08T13:59:02.306Z,101740.72
2022-10-08T14:01:38.370Z,101736.50
2022-10-08T14:04:17.895Z,101738.03
2022-10-08T14:09:32.481Z,101733.22
2022-10-08T14:12:04.702Z,101742.38
2022-10-08T14:14:35.636Z,101743.59
2022-10-08T14:17:08.883Z,101738.69
2022-10-08T14:19:41.918Z,101749.09
2022-10-08T14:22:19.590Z,101735.50
2022-10-08T14:24:52.017Z,101740.97
2022-10-08T14:27:24.476Z,101733.09
2022-10-08T14:30:03.318Z,101730.41
2022-10-08T14:32:46.717Z,101727.38
2022-10-08T14:35:29.872Z,101731.63
2022-10-08T14:38:03.192Z,101725.09
2022-10-08T14:40:33.409Z,101727.59
2022-10-08T14:43:06.223Z,101728.81
2022-10-08T14:45:44.257Z,101730.75
2022-10-08T14:48:14.414Z,101742.53
2022-10-08T14:50:53.060Z,101733.06
2022-10-08T14:53:28.717Z,101735.06
2022-10-08T14:56:12.537Z,101736.09
2022-10-08T14:58:45.828Z,101724.88
2022-10-08T15:01:27.681Z,101719.66
2022-10-08T15:04:09.975Z,101715.34
2022-10-08T15:06:44.709Z,101720.03
2022-10-08T15:09:17.080Z,101715.50
2022-10-08T15:11:59.386Z,101718.16
2022-10-08T15:14:37.071Z,101710.31
2022-10-08T15:17:13.266Z,101718.22
2022-10-08T15:19:40.517Z,101726.41
2022-10-08T15:22:18.765Z,101725.69
2022-10-08T15:25:41.181Z,101733.63
2022-10-08T15:41:54.583Z,101728.28
2022-10-08T15:47:57.181Z,101734.56
2022-10-08T15:53:43.448Z,101744.50
2022-10-08T15:59:38.438Z,101753.56
2022-10-08T16:02:22.306Z,101749.88
2022-10-08T16:04:57.689Z,101746.38
2022-10-08T16:10:37.041Z,101755.09
2022-10-08T16:13:14.427Z,101742.72
2022-10-08T16:15:59.012Z,101752.41
2022-10-08T16:18:30.626Z,101748.13
2022-10-08T16:21:07.151Z,101753.34
2022-10-08T16:23:44.802Z,101748.16
2022-10-08T16:26:27.144Z,101749.06
2022-10-08T16:29:13.818Z,101752.66
2022-10-08T16:32:17.521Z,101749.16
2022-10-08T16:34:53.448Z,101754.41
2022-10-08T16:37:26.870Z,101745.59
2022-10-08T16:40:07.130Z,101744.72
2022-10-08T16:45:23.646Z,101755.41
2022-10-08T16:47:50.903Z,101751.91
2022-10-08T16:50:25.833Z,101757.31
2022-10-08T16:52:53.605Z,101753.81
2022-10-08T16:55:21.015Z,101756.66
2022-10-08T16:57:51.586Z,101761.84
2022-10-08T17:00:22.126Z,101767.97
2022-10-08T17:02:52.939Z,101763.53
2022-10-08T17:05:23.280Z,101771.53
2022-10-08T17:07:58.904Z,101778.59
2022-10-08T17:10:39.018Z,101779.41
2022-10-08T17:13:06.569Z,101782.06
2022-10-08T17:15:51.242Z,101780.31
2022-10-08T17:21:53.545Z,101776.94
2022-10-08T17:24:28.943Z,101772.44
2022-10-08T17:27:15.434Z,101774.31
2022-10-08T17:29:47.429Z,101768.91
2022-10-08T17:32:39.764Z,101764.53
2022-10-08T17:35:23.270Z,101773.31
2022-10-08T17:37:59.150Z,101779.59
2022-10-08T17:40:36.315Z,101781.38
2022-10-08T17:43:15.342Z,101792.88
2022-10-08T17:45:45.814Z,101787.63
2022-10-08T17:48:17.938Z,101778.81
2022-10-08T17:50:54.358Z,101784.09
2022-10-08T17:56:24.415Z,101807.03
2022-10-08T17:59:02.459Z,101806.19
2022-10-08T18:04:28.554Z,101813.22
2022-10-08T18:07:03.153Z,101796.47
2022-10-08T18:09:34.183Z,101799.16
2022-10-08T18:12:01.464Z,101801.75
2022-10-08T18:14:28.954Z,101796.47
2022-10-08T18:17:21.371Z,101794.75
2022-10-08T18:20:10.405Z,101805.31
2022-10-08T18:22:45.081Z,101812.41
2022-10-08T18:25:26.686Z,101819.44
2022-10-08T18:28:01.221Z,101825.72
2022-10-08T18:30:42.343Z,101820.34
2022-10-08T18:33:15.799Z,101822.16
2022-10-08T18:35:46.422Z,101822.13
2022-10-08T18:38:30.641Z,101829.22
2022-10-08T18:41:23.458Z,101837.13
2022-10-08T18:44:31.774Z,101838.00
2022-10-08T18:47:18.134Z,101829.19
2022-10-08T18:49:59.637Z,101827.41
2022-10-08T18:52:33.927Z,101831.84
2022-10-08T18:55:20.983Z,101825.69
2022-10-08T18:58:03.171Z,101834.50
2022-10-08T19:03:49.169Z,101834.50
2022-10-08T19:06:42.603Z,101829.22
2022-10-08T19:09:27.404Z,101823.13
2022-10-08T19:15:09.840Z,101824.00
2022-10-08T19:17:58.681Z,101831.09
2022-10-08T19:20:57.521Z,101834.59
2022-10-08T19:23:46.300Z,101844.31
2022-10-08T19:27:00.168Z,101841.66
2022-10-08T19:29:44.690Z,101844.28
2022-10-08T19:32:26.656Z,101838.22
2022-10-08T19:35:02.696Z,101842.59
2022-10-08T19:37:39.242Z,101846.16
2022-10-08T19:40:24.813Z,101846.97
2022-10-08T19:43:07.396Z,101854.03
2022-10-08T19:45:50.940Z,101851.41
2022-10-08T19:48:27.493Z,101848.75
2022-10-08T19:51:24.679Z,101845.28
2022-10-08T19:54:14.285Z,101844.44
2022-10-08T19:57:09.678Z,101837.41
2022-10-08T19:59:53.038Z,101838.22
2022-10-08T20:02:36.489Z,101840.88
2022-10-08T20:05:44.273Z,101845.28
2022-10-08T20:08:37.695Z,101846.16
2022-10-08T20:11:32.846Z,101847.97
2022-10-08T20:14:16.357Z,101844.44
2022-10-08T20:20:33.388Z,101843.53
2022-10-08T20:23:17.874Z,101845.31
2022-10-08T20:26:20.142Z,101842.69
2022-10-08T20:29:43.948Z,101843.59
2022-10-08T20:32:31.042Z,101836.59
2022-10-08T20:35:25.020Z,101851.56
2022-10-08T20:38:26.435Z,101840.13
2022-10-08T20:41:07.041Z,101844.50
2022-10-08T20:43:59.716Z,101844.50
2022-10-08T20:47:12.487Z,101846.28
2022-10-08T20:50:21.293Z,101848.03
2022-10-08T20:52:49.797Z,101855.09
2022-10-08T20:55:20.451Z,101859.50
2022-10-08T20:57:51.186Z,101856.84
2022-10-08T21:00:21.766Z,101858.63
2022-10-08T21:02:49.691Z,101851.59
2022-10-08T21:05:18.178Z,101854.22
2022-10-08T21:07:45.544Z,101847.19
2022-10-08T21:10:12.879Z,101845.41
2022-10-08T21:12:46.809Z,101844.53
2022-10-08T21:15:17.432Z,101845.41
2022-10-08T21:17:48.225Z,101836.59
2022-10-08T21:20:16.126Z,101840.13
2022-10-08T21:22:46.148Z,101837.47
2022-10-08T21:25:14.316Z,101832.22
2022-10-08T21:27:43.227Z,101825.16
2022-10-08T21:30:17.956Z,101825.16
2022-10-08T21:32:51.628Z,101828.69
2022-10-08T21:35:18.957Z,101825.19
2022-10-08T21:37:46.253Z,101828.69
2022-10-08T21:40:14.145Z,101817.25
2022-10-08T21:42:42.265Z,101819.88
2022-10-08T21:45:13.442Z,101820.78
2022-10-08T21:47:46.393Z,101829.63
2022-10-08T21:50:17.869Z,101834.00
2022-10-08T21:52:57.082Z,101830.53
2022-10-08T21:55:24.863Z,101831.41
2022-10-08T21:57:59.127Z,101829.63
2022-10-08T22:00:38.034Z,101832.25
2022-10-08T22:03:14.359Z,101825.22
2022-10-08T22:05:56.279Z,101828.75
2022-10-08T22:08:32.624Z,101831.38
2022-10-08T22:11:07.053Z,101829.63
2022-10-08T22:13:36.098Z,101826.13
2022-10-08T22:16:19.239Z,101833.13
2022-10-08T22:18:46.783Z,101831.41
2022-10-08T22:21:21.849Z,101833.16
2022-10-08T22:23:50.570Z,101833.16
2022-10-08T22:26:25.593Z,101830.50
2022-10-08T22:28:52.820Z,101825.25
2022-10-08T22:31:20.842Z,101819.06
2022-10-08T22:33:49.571Z,101825.22
2022-10-08T22:36:24.115Z,101817.31
2022-10-08T22:38:52.340Z,101819.06
2022-10-08T22:41:26.444Z,101816.44
2022-10-08T22:43:54.924Z,101819.94
2022-10-08T22:46:31.774Z,101816.44
2022-10-08T22:49:00.763Z,101817.31
2022-10-08T22:51:28.851Z,101811.16
2022-10-08T22:53:56.281Z,101807.63
2022-10-08T22:56:26.431Z,101809.38
2022-10-08T22:58:53.700Z,101802.38
2022-10-08T23:01:26.648Z,101795.31
2022-10-08T23:03:54.437Z,101799.72
2022-10-08T23:06:27.647Z,101787.41
2022-10-08T23:09:01.312Z,101783.00
2022-10-08T23:11:30.146Z,101783.00
2022-10-08T23:13:58.687Z,101782.13
2022-10-08T23:16:28.291Z,101775.09
2022-10-08T23:19:10.969Z,101775.09
2022-10-08T23:21:41.611Z,101780.38
2022-10-08T23:24:11.618Z,101775.97
2022-10-08T23:26:39.148Z,101779.47
2022-10-08T23:29:06.258Z,101777.72
2022-10-08T23:31:36.506Z,101770.66
2022-10-08T23:34:05.313Z,101768.91
2022-10-08T23:36:40.827Z,101773.31
2022-10-08T23:39:12.900Z,101780.34
2022-10-08T23:41:42.890Z,101771.56
2022-10-08T23:44:11.659Z,101776.84
2022-10-08T23:46:38.781Z,101778.59
2022-10-08T23:49:08.986Z,101773.31
2022-10-08T23:51:36.336Z,101774.19
2022-10-08T23:54:03.577Z,101771.56
2022-10-08T23:56:31.036Z,101774.22
